| time (UTC) | temp F | wind direction | speed MPH | gust MPH | rain 1hr in | rain 24hr in | rain mn in | humidity % | barometer mb |
| 20260510034558 | 40 | 123 | 0.0 | 1.0 | 0.00 | 0.00 | 0.00 | 85 | 1015.7 |
| 20260510033057 | 40 | 117 | 0.0 | 0.0 | 0.00 | 0.00 | 0.00 | 86 | 1015.9 |
| 20260510031559 | 39 | 122 | 0.0 | 0.0 | 0.00 | 0.00 | 0.00 | 86 | 1016.1 |
| 20260510030055 | 39 | 153 | 0.0 | 2.0 | 0.00 | 0.00 | 0.00 | 86 | 1016.2 |
| 20260510024557 | 39 | 141 | 0.0 | 0.0 | 0.00 | 0.00 | 0.00 | 86 | 1016.5 |
| 20260510023049 | 39 | 128 | 0.0 | 1.0 | 0.00 | 0.00 | 0.00 | 86 | 1016.7 |
| 20260510021546 | 39 | 127 | 0.0 | 1.0 | 0.00 | 0.00 | 0.00 | 86 | 1017.0 |
| 20260510020051 | 38 | 137 | 0.0 | 0.0 | 0.00 | 0.00 | 0.00 | 86 | 1017.2 |
| 20260510014543 | 39 | 121 | 0.0 | 0.0 | 0.00 | 0.00 | 0.00 | 85 | 1017.6 |
| 20260510013047 | 39 | 116 | 0.0 | 0.0 | 0.00 | 0.00 | 0.00 | 84 | 1017.7 |
| 20260510011539 | 39 | 110 | 0.0 | 0.0 | 0.00 | 0.00 | 0.00 | 84 | 1017.9 |
| 20260510010056 | 39 | 133 | 0.0 | 1.0 | 0.00 | 0.00 | 0.00 | 83 | 1018.1 |
| 20260510004536 | 39 | 146 | 0.0 | 0.0 | 0.00 | 0.00 | 0.00 | 83 | 1018.2 |
| 20260510003035 | 39 | 143 | 0.0 | 0.0 | 0.00 | 0.00 | 0.00 | 82 | 1018.4 |
| 20260510001533 | 39 | 117 | 0.0 | 0.0 | 0.00 | 0.00 | 0.00 | 80 | 1018.6 |
| 20260510000028 | 39 | 119 | 0.0 | 0.0 | 0.00 | 0.00 | 0.00 | 79 | 1018.8 |
| 20260509234526 | 40 | 167 | 0.0 | 0.0 | 0.00 | 0.00 | 0.00 | 78 | 1019.0 |
| 20260509233023 | 40 | 125 | 0.0 | 1.0 | 0.00 | 0.00 | 0.00 | 77 | 1019.2 |
| 20260509231529 | 40 | 126 | 0.0 | 0.0 | 0.00 | 0.00 | 0.00 | 76 | 1019.3 |
| 20260509230020 | 40 | 127 | 0.0 | 0.0 | 0.00 | 0.00 | 0.00 | 75 | 1019.5 |
| 20260509224516 | 41 | 153 | 0.0 | 0.0 | 0.00 | 0.00 | 0.00 | 73 | 1019.7 |
| 20260509223015 | 42 | 184 | 0.0 | 0.0 | 0.00 | 0.00 | 0.00 | 72 | 1019.8 |
| 20260509221525 | 42 | 181 | 0.0 | 0.0 | 0.00 | 0.00 | 0.00 | 71 | 1020.0 |
| 20260509220009 | 43 | 165 | 0.0 | 0.0 | 0.00 | 0.00 | 0.00 | 71 | 1020.1 |
| 20260509214506 | 43 | 165 | 0.0 | 0.0 | 0.00 | 0.00 | 0.00 | 69 | 1020.0 |
| 20260509213005 | 43 | 142 | 0.0 | 1.0 | 0.00 | 0.00 | 0.00 | 68 | 1020.1 |
| 20260509211601 | 44 | 128 | 0.0 | 0.0 | 0.00 | 0.00 | 0.00 | 67 | 1020.2 |
| 20260509210103 | 44 | 119 | 0.0 | 0.0 | 0.00 | 0.00 | 0.00 | 66 | 1020.4 |
| 20260509204600 | 45 | 139 | 0.0 | 1.0 | 0.00 | 0.00 | 0.00 | 63 | 1020.5 |
| 20260509203055 | 45 | 122 | 0.0 | 4.0 | 0.00 | 0.00 | 0.00 | 61 | 1020.5 |
| 20260509201550 | 46 | 193 | 0.0 | 1.0 | 0.00 | 0.00 | 0.00 | 60 | 1020.6 |
| 20260509200048 | 47 | 124 | 0.0 | 0.0 | 0.00 | 0.00 | 0.00 | 56 | 1020.6 |
| 20260509194544 | 48 | 122 | 0.0 | 0.0 | 0.00 | 0.00 | 0.00 | 54 | 1020.6 |
| 20260509193046 | 48 | 131 | 0.0 | 2.0 | 0.00 | 0.00 | 0.00 | 51 | 1020.6 |
| 20260509191552 | 49 | 132 | 0.0 | 0.0 | 0.00 | 0.00 | 0.00 | 51 | 1020.6 |
| 20260509190043 | 50 | 128 | 0.0 | 1.0 | 0.00 | 0.00 | 0.00 | 49 | 1020.6 |
| 20260509184536 | 52 | 134 | 0.0 | 3.0 | 0.00 | 0.00 | 0.00 | 47 | 1020.6 |
| 20260509183034 | 53 | 176 | 0.0 | 5.0 | 0.00 | 0.00 | 0.00 | 44 | 1020.6 |
| 20260509181526 | 53 | 142 | 0.0 | 7.0 | 0.00 | 0.00 | 0.00 | 44 | 1020.6 |
| 20260509180024 | 54 | 137 | 0.0 | 6.0 | 0.00 | 0.00 | 0.00 | 43 | 1020.7 |
| 20260509174524 | 54 | 129 | 0.0 | 1.0 | 0.00 | 0.00 | 0.00 | 42 | 1020.7 |
| 20260509173018 | 55 | 142 | 0.0 | 0.0 | 0.00 | 0.00 | 0.00 | 42 | 1020.8 |
| 20260509171515 | 56 | 134 | 0.0 | 2.0 | 0.00 | 0.00 | 0.00 | 39 | 1020.8 |
| 20260509170026 | 56 | 143 | 0.0 | 4.0 | 0.00 | 0.00 | 0.00 | 37 | 1020.8 |
| 20260509164512 | 58 | 135 | 0.0 | 5.0 | 0.00 | 0.00 | 0.00 | 37 | 1020.8 |
| 20260509163010 | 59 | 151 | 0.0 | 9.0 | 0.00 | 0.00 | 0.00 | 36 | 1020.8 |
| 20260509161505 | 60 | 121 | 1.0 | 8.0 | 0.00 | 0.00 | 0.00 | 34 | 1020.8 |
| 20260509160100 | 61 | 146 | 1.0 | 7.0 | 0.00 | 0.00 | 0.00 | 33 | 1020.9 |
| 20260509154559 | 63 | 118 | 0.0 | 4.0 | 0.00 | 0.00 | 0.00 | 29 | 1021.0 |
| 20260509153058 | 63 | 74 | 0.0 | 1.0 | 0.00 | 0.00 | 0.00 | 25 | 1021.1 |
| 20260509151559 | 63 | 119 | 0.0 | 2.0 | 0.00 | 0.00 | 0.00 | 26 | 1021.2 |
| 20260509150052 | 64 | 121 | 0.0 | 5.0 | 0.00 | 0.00 | 0.00 | 26 | 1021.3 |
| 20260509144553 | 64 | 194 | 0.0 | 3.0 | 0.00 | 0.00 | 0.00 | 24 | 1021.5 |
| 20260509143051 | 64 | 128 | 0.0 | 5.0 | 0.00 | 0.00 | 0.00 | 26 | 1021.5 |
| 20260509141551 | 64 | 132 | 1.0 | 8.0 | 0.00 | 0.00 | 0.00 | 26 | 1021.6 |
| 20260509140048 | 65 | 205 | 0.0 | 4.0 | 0.00 | 0.00 | 0.00 | 26 | 1021.8 |
| 20260509134555 | 64 | 79 | 0.0 | 4.0 | 0.00 | 0.00 | 0.00 | 26 | 1022.0 |
| 20260509133044 | 64 | 108 | 0.0 | 6.0 | 0.00 | 0.00 | 0.00 | 28 | 1022.1 |
| 20260509131558 | 64 | 176 | 1.0 | 6.0 | 0.00 | 0.00 | 0.00 | 26 | 1022.4 |
| 20260509130050 | 62 | 139 | 0.0 | 4.0 | 0.00 | 0.00 | 0.00 | 31 | 1022.6 |
| 20260509124542 | 63 | 355 | 0.0 | 6.0 | 0.00 | 0.00 | 0.00 | 30 | 1022.9 |
| 20260509123035 | 63 | 126 | 0.0 | 2.0 | 0.00 | 0.00 | 0.00 | 27 | 1023.1 |
| 20260509121531 | 63 | 106 | 0.0 | 1.0 | 0.00 | 0.00 | 0.00 | 29 | 1023.1 |
| 20260509120033 | 64 | 201 | 0.0 | 3.0 | 0.00 | 0.00 | 0.00 | 28 | 1023.2 |
| 20260509114529 | 62 | 156 | 0.0 | 3.0 | 0.00 | 0.00 | 0.00 | 31 | 1023.4 |
| 20260509113028 | 62 | 136 | 0.0 | 1.0 | 0.00 | 0.00 | 0.00 | 28 | 1023.7 |
| 20260509111526 | 61 | 311 | 0.0 | 1.0 | 0.00 | 0.00 | 0.00 | 31 | 1023.9 |
| 20260509110026 | 63 | 316 | 0.0 | 0.0 | 0.00 | 0.00 | 0.00 | 30 | 1024.1 |
| 20260509104522 | 61 | 69 | 0.0 | 1.0 | 0.00 | 0.00 | 0.00 | 29 | 1024.2 |
| 20260509103025 | 60 | 352 | 0.0 | 1.0 | 0.00 | 0.00 | 0.00 | 35 | 1024.4 |
| 20260509101523 | 61 | 201 | 0.0 | 1.0 | 0.00 | 0.00 | 0.00 | 33 | 1024.6 |
| 20260509100020 | 60 | 77 | 0.0 | 1.0 | 0.00 | 0.00 | 0.00 | 35 | 1024.7 |
| 20260509094517 | 61 | 214 | 0.0 | 2.0 | 0.00 | 0.00 | 0.00 | 31 | 1024.8 |
| 20260509093021 | 60 | 166 | 0.0 | 1.0 | 0.00 | 0.00 | 0.00 | 31 | 1024.9 |
| 20260509091514 | 59 | 27 | 0.0 | 1.0 | 0.00 | 0.00 | 0.00 | 33 | 1025.0 |
| 20260509090016 | 59 | 82 | 0.0 | 1.0 | 0.00 | 0.00 | 0.00 | 32 | 1025.2 |
| 20260509084516 | 59 | 167 | 0.0 | 2.0 | 0.00 | 0.00 | 0.00 | 34 | 1025.2 |
| 20260509083015 | 58 | 188 | 0.0 | 1.0 | 0.00 | 0.00 | 0.00 | 39 | 1025.3 |
| 20260509081526 | 57 | 102 | 0.0 | 0.0 | 0.00 | 0.00 | 0.00 | 40 | 1025.4 |
| 20260509080012 | 54 | 200 | 0.0 | 1.0 | 0.00 | 0.00 | 0.00 | 48 | 1025.6 |
| 20260509074511 | 53 | 229 | 0.0 | 1.0 | 0.00 | 0.00 | 0.00 | 53 | 1025.7 |
| 20260509073011 | 51 | 349 | 0.0 | 0.0 | 0.00 | 0.00 | 0.00 | 64 | 1025.8 |
| 20260509071512 | 52 | 46 | 0.0 | 1.0 | 0.00 | 0.00 | 0.00 | 63 | 1025.8 |
| 20260509070009 | 50 | 12 | 0.0 | 0.0 | 0.00 | 0.00 | 0.00 | 62 | 1026.0 |
| 20260509064509 | 50 | 359 | 0.0 | 0.0 | 0.00 | 0.00 | 0.00 | 63 | 1026.1 |
| 20260509063008 | 51 | 57 | 0.0 | 0.0 | 0.00 | 0.00 | 0.00 | 63 | 1026.3 |
| 20260509061507 | 49 | 77 | 0.0 | 0.0 | 0.00 | 0.00 | 0.00 | 68 | 1026.3 |
| 20260509060012 | 47 | 340 | 0.0 | 0.0 | 0.00 | 0.00 | 0.00 | 68 | 1026.4 |
| 20260509054522 | 47 | 347 | 0.0 | 0.0 | 0.00 | 0.00 | 0.00 | 72 | 1026.5 |
| 20260509053018 | 45 | 25 | 0.0 | 0.0 | 0.00 | 0.00 | 0.00 | 62 | 1026.4 |
| 20260509051516 | 44 | 48 | 0.0 | 0.0 | 0.00 | 0.00 | 0.00 | 65 | 1026.6 |
| 20260509050025 | 44 | 49 | 0.0 | 0.0 | 0.00 | 0.00 | 0.00 | 71 | 1026.4 |
| 20260509044514 | 45 | 129 | 0.0 | 0.0 | 0.00 | 0.00 | 0.00 | 69 | 1026.6 |
| 20260509043006 | 45 | 129 | 0.0 | 0.0 | 0.00 | 0.00 | 0.00 | 71 | 1026.6 |
| 20260509041506 | 44 | 129 | 0.0 | 0.0 | 0.00 | 0.00 | 0.00 | 76 | 1026.4 |
| 20260509040005 | 39 | 129 | 0.0 | 0.0 | 0.00 | 0.00 | 0.00 | 85 | 1026.6 |